Time;durP1;ratioP1;P1;durP2;ratioP2;P2;SDS_P1;SDS_P2;PMS_P1;PMS_P2;Temp;Humidity;BMP_temperature;BMP_pressure;BME280_temperature;BME280_humidity;BME280_pressure;Samples;Min_cycle;Max_cycle;Signal;HPM_P1;HPM_P2
2022/09/29 00:02:47;;;;;;;1.50;0.70;;;17.70;68.90;;;;;;6223467;28;20080;-73
2022/09/29 00:05:54;;;;;;;0.90;0.60;;;17.80;68.90;;;;;;6222077;28;20042;-73
2022/09/29 00:08:56;;;;;;;1.65;1.20;;;17.80;68.80;;;;;;6198971;28;20042;-74
2022/09/29 00:11:57;;;;;;;1.33;0.98;;;17.80;68.80;;;;;;6220547;28;20092;-72
2022/09/29 00:14:58;;;;;;;5.10;1.38;;;17.80;68.80;;;;;;6221811;28;20046;-73
2022/09/29 00:17:59;;;;;;;2.70;1.50;;;17.80;68.80;;;;;;6222102;28;20046;-73
2022/09/29 00:21:07;;;;;;;3.70;1.20;;;17.90;68.90;;;;;;6245200;28;20436;-73
2022/09/29 00:24:08;;;;;;;3.15;1.80;;;17.80;68.90;;;;;;6221459;28;20382;-74
2022/09/29 00:27:10;;;;;;;3.60;1.30;;;17.80;68.90;;;;;;6238004;28;20041;-73
2022/09/29 00:30:11;;;;;;;1.88;1.30;;;17.80;68.80;;;;;;6239335;28;20041;-73
2022/09/29 00:33:12;;;;;;;1.40;1.15;;;17.80;68.80;;;;;;6234475;28;20038;-74
2022/09/29 00:36:16;;;;;;;2.03;1.25;;;17.80;68.80;;;;;;6222206;28;20041;-74
2022/09/29 00:39:17;;;;;;;3.38;1.15;;;17.90;68.90;;;;;;6221734;28;20116;-74
2022/09/29 00:42:19;;;;;;;1.80;1.10;;;17.80;68.90;;;;;;6230595;28;20063;-75
2022/09/29 00:45:22;;;;;;;3.90;1.60;;;17.80;69.00;;;;;;6246223;28;20048;-74
2022/09/29 00:48:30;;;;;;;2.97;1.23;;;17.80;69.10;;;;;;6237739;28;20037;-75
2022/09/29 00:51:33;;;;;;;2.05;1.20;;;17.70;69.40;;;;;;6221761;28;20085;-73
2022/09/29 00:54:58;;;;;;;2.22;1.50;;;17.70;69.30;;;;;;6222711;28;20037;-73
2022/09/29 00:58:07;;;;;;;1.98;1.30;;;17.70;69.30;;;;;;6220385;28;20049;-74
2022/09/29 01:01:10;;;;;;;2.15;1.38;;;17.70;69.30;;;;;;6219405;28;20486;-74
2022/09/29 01:04:17;;;;;;;3.63;1.65;;;17.70;69.50;;;;;;6217569;28;20038;-74
2022/09/29 01:07:22;;;;;;;2.90;1.30;;;17.70;69.70;;;;;;6219364;28;20121;-74
2022/09/29 01:10:23;;;;;;;6.78;1.42;;;17.70;69.80;;;;;;6201750;28;20034;-75
2022/09/29 01:13:24;;;;;;;2.45;1.35;;;17.70;69.70;;;;;;6221195;28;20379;-75
2022/09/29 01:16:25;;;;;;;5.57;1.63;;;17.70;69.70;;;;;;6220118;28;20082;-75
2022/09/29 01:19:39;;;;;;;1.98;1.40;;;17.70;69.70;;;;;;6221482;28;20087;-73
2022/09/29 01:23:08;;;;;;;4.63;1.52;;;17.70;69.70;;;;;;6220824;28;20034;-74
2022/09/29 01:26:33;;;;;;;10.80;1.85;;;17.70;69.80;;;;;;6218629;28;20041;-74
2022/09/29 01:29:46;;;;;;;2.17;1.30;;;17.70;69.80;;;;;;6215964;28;20474;-73
2022/09/29 01:33:08;;;;;;;2.95;1.20;;;17.70;69.70;;;;;;6219773;28;20034;-74
2022/09/29 01:36:27;;;;;;;2.42;1.38;;;17.70;69.70;;;;;;6211953;28;20034;-74
2022/09/29 01:39:30;;;;;;;;;;;17.70;69.70;;;;;;6209258;28;20091;-74
2022/09/29 01:43:04;;;;;;;5.70;1.75;;;17.70;69.80;;;;;;6226419;28;19928;-74
2022/09/29 01:46:16;;;;;;;4.35;1.27;;;17.80;69.80;;;;;;6213235;28;20057;-74
2022/09/29 01:49:22;;;;;;;2.25;1.17;;;17.80;69.70;;;;;;6233118;28;20102;-74
2022/09/29 01:52:29;;;;;;;2.50;1.40;;;17.80;69.70;;;;;;6244921;28;20041;-74
2022/09/29 01:55:32;;;;;;;1.25;1.02;;;17.70;69.70;;;;;;6218801;28;20044;-74
2022/09/29 01:58:54;;;;;;;3.38;1.20;;;17.70;69.80;;;;;;6231789;28;20041;-74
2022/09/29 02:02:02;;;;;;;5.63;1.17;;;17.60;70.00;;;;;;6239787;28;20080;-74
2022/09/29 02:05:12;;;;;;;3.85;1.67;;;17.60;70.00;;;;;;6217059;28;20703;-74
2022/09/29 02:08:17;;;;;;;3.05;1.73;;;17.60;70.00;;;;;;6224112;28;20382;-74
2022/09/29 02:11:19;;;;;;;2.10;1.60;;;17.60;70.00;;;;;;6211480;28;20037;-74
2022/09/29 02:14:24;;;;;;;1.77;1.58;;;17.60;70.10;;;;;;6220917;28;20045;-74
2022/09/29 02:17:30;;;;;;;2.65;1.58;;;17.60;70.00;;;;;;6219681;28;20100;-74
2022/09/29 02:20:31;;;;;;;3.20;1.70;;;17.60;70.00;;;;;;6217807;28;20574;-74
2022/09/29 02:23:32;;;;;;;2.78;1.75;;;17.60;70.10;;;;;;6221391;28;20042;-74
2022/09/29 02:26:34;;;;;;;4.97;1.60;;;17.60;70.20;;;;;;6220700;28;20034;-74
2022/09/29 02:29:36;;;;;;;4.85;1.70;;;17.50;70.20;;;;;;6219393;28;20030;-73
2022/09/29 02:32:37;;;;;;;2.65;1.63;;;17.50;70.30;;;;;;6220024;28;20034;-74
2022/09/29 02:35:59;;;;;;;1.85;1.13;;;17.50;70.30;;;;;;6219278;28;20045;-74
2022/09/29 02:39:41;;;;;;;2.35;1.15;;;17.40;70.40;;;;;;6207696;28;20072;-74
2022/09/29 02:42:48;;;;;;;4.45;1.40;;;17.40;70.50;;;;;;6238757;28;20034;-74
2022/09/29 02:45:55;;;;;;;6.38;1.58;;;17.30;70.60;;;;;;6228801;28;20117;-73
2022/09/29 02:49:04;;;;;;;4.78;1.30;;;17.30;70.70;;;;;;6221972;28;20482;-74
2022/09/29 02:52:15;;;;;;;1.60;1.33;;;17.20;70.80;;;;;;6217875;28;20049;-73
2022/09/29 02:55:20;;;;;;;7.80;1.08;;;17.20;70.90;;;;;;6231422;28;20041;-73
2022/09/29 02:58:33;;;;;;;2.58;1.50;;;17.20;71.00;;;;;;6235038;28;20022;-73
2022/09/29 03:01:45;;;;;;;2.50;1.20;;;17.20;71.10;;;;;;6243800;28;20057;-73
2022/09/29 03:04:46;;;;;;;1.88;1.10;;;17.10;71.20;;;;;;6219179;28;20064;-73
2022/09/29 03:07:47;;;;;;;1.83;1.00;;;17.10;71.40;;;;;;6218879;28;20057;-73
2022/09/29 03:10:48;;;;;;;2.92;1.38;;;17.00;71.50;;;;;;6241873;28;20421;-73
2022/09/29 03:13:49;;;;;;;1.00;0.68;;;17.00;71.70;;;;;;6247381;28;20045;-75
2022/09/29 03:16:50;;;;;;;2.00;1.00;;;17.10;71.80;;;;;;6247458;28;20037;-74
2022/09/29 03:19:51;;;;;;;1.98;0.98;;;17.10;71.80;;;;;;6235927;28;20374;-74
2022/09/29 03:22:56;;;;;;;0.82;0.70;;;17.00;71.70;;;;;;6246675;28;20037;-74
2022/09/29 03:25:58;;;;;;;1.63;0.80;;;17.00;71.80;;;;;;6235967;28;20042;-74
2022/09/29 03:28:59;;;;;;;1.23;0.80;;;17.00;71.80;;;;;;6244430;28;20076;-74
2022/09/29 03:32:00;;;;;;;2.47;0.75;;;16.90;71.70;;;;;;6222647;28;20030;-74
2022/09/29 03:35:02;;;;;;;0.77;0.20;;;16.80;71.50;;;;;;6238694;28;20041;-74
2022/09/29 03:38:03;;;;;;;0.28;0.10;;;16.60;71.30;;;;;;6243403;28;20037;-74
2022/09/29 03:41:05;;;;;;;0.15;0.10;;;16.50;70.60;;;;;;6238083;28;20442;-74
2022/09/29 03:44:06;;;;;;;0.63;0.22;;;16.40;69.90;;;;;;6246567;28;20037;-74
2022/09/29 03:47:08;;;;;;;0.15;0.15;;;16.40;69.60;;;;;;6244920;28;20056;-75
2022/09/29 03:50:10;;;;;;;0.73;0.40;;;16.30;68.90;;;;;;6222212;28;20042;-75
2022/09/29 03:53:12;;;;;;;0.20;0.17;;;16.20;68.40;;;;;;6220157;28;20046;-75
2022/09/29 03:56:14;;;;;;;0.22;0.20;;;16.10;68.30;;;;;;6220289;28;20451;-75
2022/09/29 03:59:15;;;;;;;0.00;0.00;;;16.10;68.40;;;;;;6221851;28;20490;-76
2022/09/29 04:02:18;;;;;;;0.35;0.15;;;16.10;68.20;;;;;;6221007;28;20037;-74
2022/09/29 04:05:19;;;;;;;0.00;0.00;;;16.10;68.20;;;;;;6223353;28;20060;-74
2022/09/29 04:08:20;;;;;;;0.20;0.10;;;16.10;67.90;;;;;;6228501;28;20064;-76
2022/09/29 04:11:21;;;;;;;0.10;0.10;;;16.20;67.80;;;;;;6222548;28;20434;-76
2022/09/29 04:14:22;;;;;;;0.20;0.20;;;16.30;67.90;;;;;;6223099;28;20371;-75
2022/09/29 04:17:24;;;;;;;0.17;0.15;;;16.30;68.80;;;;;;6231290;28;20037;-75
2022/09/29 04:20:25;;;;;;;1.23;0.25;;;16.30;68.00;;;;;;6212525;28;20045;-75
2022/09/29 04:23:29;;;;;;;0.40;0.30;;;16.40;68.10;;;;;;6235785;28;20045;-75
2022/09/29 04:26:30;;;;;;;0.38;0.20;;;16.40;68.10;;;;;;6230222;28;20122;-75
2022/09/29 04:29:31;;;;;;;0.40;0.20;;;16.50;67.80;;;;;;6208393;28;20037;-74
2022/09/29 04:32:32;;;;;;;0.10;0.10;;;16.50;67.60;;;;;;6222388;28;20426;-74
2022/09/29 04:35:33;;;;;;;2.72;0.20;;;16.50;68.30;;;;;;6221457;28;20041;-74
2022/09/29 04:38:34;;;;;;;0.03;0.03;;;16.50;67.20;;;;;;6214205;28;20085;-76
2022/09/29 04:41:38;;;;;;;0.55;0.20;;;16.60;67.20;;;;;;6216404;28;20150;-74
2022/09/29 04:44:39;;;;;;;1.00;0.25;;;16.60;66.90;;;;;;6212034;28;20038;-73
2022/09/29 04:47:41;;;;;;;0.20;0.20;;;16.70;65.80;;;;;;6216457;28;20121;-74
2022/09/29 04:50:42;;;;;;;0.60;0.43;;;16.70;65.30;;;;;;6217912;28;20030;-75
2022/09/29 04:53:43;;;;;;;1.13;0.20;;;16.80;65.50;;;;;;6212756;28;20407;-74
2022/09/29 04:56:48;;;;;;;0.73;0.30;;;16.80;65.60;;;;;;6214720;28;20069;-74
2022/09/29 04:59:50;;;;;;;0.32;0.10;;;16.90;66.60;;;;;;6202295;28;20058;-75
2022/09/29 05:02:51;;;;;;;1.00;0.38;;;16.90;65.90;;;;;;6193572;28;20029;-74
2022/09/29 05:05:54;;;;;;;0.15;0.15;;;16.90;65.90;;;;;;6220592;28;20045;-74
2022/09/29 05:08:55;;;;;;;0.52;0.30;;;17.00;66.00;;;;;;6239720;28;20351;-74
2022/09/29 05:11:56;;;;;;;0.32;0.30;;;17.00;65.70;;;;;;6238758;28;20046;-75
2022/09/29 05:14:57;;;;;;;5.82;0.73;;;16.90;65.60;;;;;;6215101;28;20471;-74
2022/09/29 05:18:02;;;;;;;1.85;0.45;;;16.90;65.60;;;;;;6207912;28;20034;-75
2022/09/29 05:21:05;;;;;;;0.63;0.52;;;16.90;65.90;;;;;;6215058;28;20058;-75
2022/09/29 05:24:06;;;;;;;1.02;0.30;;;16.90;66.00;;;;;;6222601;28;20045;-74
2022/09/29 05:27:07;;;;;;;1.05;0.60;;;16.90;65.90;;;;;;6245416;28;20037;-74
2022/09/29 05:30:08;;;;;;;0.45;0.38;;;16.90;65.30;;;;;;6223852;28;20038;-74
2022/09/29 05:33:10;;;;;;;0.65;0.50;;;16.80;65.50;;;;;;6215606;28;20092;-77
2022/09/29 05:36:12;;;;;;;0.90;0.40;;;16.90;65.40;;;;;;6219620;28;20030;-75
2022/09/29 05:39:13;;;;;;;2.35;0.40;;;16.90;65.20;;;;;;6212189;28;20549;-75
2022/09/29 05:42:14;;;;;;;0.45;0.28;;;16.90;64.90;;;;;;6202409;28;20080;-74
2022/09/29 05:45:16;;;;;;;0.55;0.30;;;16.80;64.30;;;;;;6209556;28;20095;-75
2022/09/29 05:48:17;;;;;;;0.70;0.30;;;16.80;64.20;;;;;;6227766;28;20033;-74
2022/09/29 05:51:23;;;;;;;3.30;0.40;;;16.80;64.20;;;;;;6230520;28;20038;-74
2022/09/29 05:54:26;;;;;;;0.82;0.30;;;16.80;64.40;;;;;;6218390;28;20526;-75
2022/09/29 05:57:27;;;;;;;1.08;0.50;;;16.90;64.50;;;;;;6224072;28;20060;-75
2022/09/29 06:00:30;;;;;;;4.50;0.75;;;16.80;64.30;;;;;;6246351;28;20046;-74
2022/09/29 06:03:34;;;;;;;0.90;0.52;;;16.90;64.70;;;;;;6238494;28;20061;-75
2022/09/29 06:06:35;;;;;;;2.08;0.30;;;16.80;64.60;;;;;;6229812;28;20117;-74
2022/09/29 06:09:36;;;;;;;4.47;0.60;;;16.90;64.90;;;;;;6234604;28;20060;-74
2022/09/29 06:12:37;;;;;;;7.03;0.68;;;16.80;64.80;;;;;;6246651;28;20069;-74
2022/09/29 06:15:38;;;;;;;2.55;0.40;;;16.80;64.70;;;;;;6229279;28;20033;-74
2022/09/29 06:18:40;;;;;;;3.15;0.40;;;16.80;64.70;;;;;;6236318;28;20037;-74
2022/09/29 06:21:41;;;;;;;0.60;0.60;;;16.80;64.70;;;;;;6234675;28;20046;-73
2022/09/29 06:24:42;;;;;;;0.80;0.50;;;16.90;64.70;;;;;;6221718;28;20089;-73
2022/09/29 06:27:43;;;;;;;4.18;0.70;;;17.00;64.80;;;;;;6221393;28;20030;-73
2022/09/29 06:30:44;;;;;;;0.90;0.52;;;17.00;64.80;;;;;;6225754;28;20034;-73
2022/09/29 06:33:45;;;;;;;1.83;0.82;;;17.10;65.00;;;;;;6226783;28;20042;-73
2022/09/29 06:40:07;;;;;;;1.02;0.70;;;17.10;64.70;;;;;;6215045;28;20041;-73
2022/09/29 06:43:10;;;;;;;1.17;0.88;;;17.10;64.60;;;;;;6242025;28;20120;-73
2022/09/29 06:46:11;;;;;;;3.00;0.75;;;17.20;64.40;;;;;;6227823;28;20106;-73
2022/09/29 06:49:14;;;;;;;6.07;0.80;;;17.20;64.30;;;;;;6234405;28;20095;-73
2022/09/29 06:52:15;;;;;;;3.58;0.80;;;17.20;64.40;;;;;;6224976;28;20053;-73
2022/09/29 06:55:16;;;;;;;1.52;0.57;;;17.20;64.30;;;;;;6224540;28;20451;-74
2022/09/29 06:58:17;;;;;;;0.98;0.50;;;17.20;64.30;;;;;;6224190;28;20444;-73
2022/09/29 07:01:18;;;;;;;1.20;0.60;;;17.20;64.20;;;;;;6226111;28;20455;-72
2022/09/29 07:04:20;;;;;;;1.50;0.65;;;17.30;64.20;;;;;;6206416;28;20096;-74
2022/09/29 07:07:21;;;;;;;1.13;0.50;;;17.30;63.90;;;;;;6224801;28;20100;-74
2022/09/29 07:10:22;;;;;;;1.08;0.70;;;17.40;63.70;;;;;;6244043;28;20466;-74
2022/09/29 07:13:24;;;;;;;1.02;0.60;;;17.40;63.40;;;;;;6247657;28;20033;-73
2022/09/29 07:16:26;;;;;;;3.35;0.77;;;17.50;63.50;;;;;;6248508;28;20037;-73
2022/09/29 07:19:27;;;;;;;2.78;1.10;;;17.50;63.30;;;;;;6231684;28;20070;-74
2022/09/29 07:22:28;;;;;;;2.60;1.10;;;17.70;63.40;;;;;;6224765;28;20053;-73
2022/09/29 07:25:29;;;;;;;1.42;0.85;;;17.80;63.30;;;;;;6207082;28;20030;-74
2022/09/29 07:28:31;;;;;;;11.93;0.98;;;17.80;63.10;;;;;;6223458;28;20365;-74
2022/09/29 07:31:32;;;;;;;1.52;0.80;;;17.90;62.90;;;;;;6223027;28;20034;-74
2022/09/29 07:34:33;;;;;;;1.70;0.80;;;18.00;62.80;;;;;;6221982;28;20030;-73
2022/09/29 07:37:34;;;;;;;1.95;0.63;;;18.00;62.70;;;;;;6219799;28;20418;-74
2022/09/29 07:40:35;;;;;;;4.95;1.17;;;18.10;62.60;;;;;;6229284;28;20048;-74
2022/09/29 07:43:36;;;;;;;3.50;0.90;;;18.10;62.50;;;;;;6246689;28;20034;-74
2022/09/29 07:46:37;;;;;;;1.15;0.60;;;18.10;62.30;;;;;;6248055;28;20126;-74
2022/09/29 07:49:40;;;;;;;1.10;0.70;;;18.10;62.10;;;;;;6230175;28;20359;-74
2022/09/29 07:52:41;;;;;;;2.92;1.25;;;18.10;62.10;;;;;;6224367;28;20040;-74
2022/09/29 07:55:43;;;;;;;1.30;0.90;;;18.10;62.00;;;;;;6247702;28;20037;-74
2022/09/29 07:58:49;;;;;;;5.43;0.90;;;18.10;62.00;;;;;;6246445;28;20437;-74
2022/09/29 08:01:50;;;;;;;1.23;0.80;;;18.20;62.00;;;;;;6245537;28;20061;-74
2022/09/29 08:04:51;;;;;;;2.25;0.65;;;18.30;61.50;;;;;;6242410;28;20049;-74
2022/09/29 08:07:52;;;;;;;1.40;0.98;;;18.30;61.30;;;;;;6224047;28;20379;-74
2022/09/29 08:11:15;;;;;;;15.15;1.15;;;18.40;61.30;;;;;;6243034;28;20065;-74
2022/09/29 08:14:16;;;;;;;0.93;0.77;;;18.40;61.30;;;;;;6238617;28;20410;-73
2022/09/29 08:17:17;;;;;;;4.28;0.90;;;18.40;61.20;;;;;;6244616;28;20056;-75
2022/09/29 08:20:18;;;;;;;1.13;0.75;;;18.40;61.30;;;;;;6220330;28;20494;-73
2022/09/29 08:23:20;;;;;;;2.78;0.80;;;18.40;61.10;;;;;;6221975;28;20045;-73
2022/09/29 08:26:21;;;;;;;1.70;0.80;;;18.40;60.90;;;;;;6203803;28;20117;-74
2022/09/29 08:29:22;;;;;;;5.40;0.85;;;18.40;60.80;;;;;;6223119;28;20471;-74
2022/09/29 08:32:24;;;;;;;1.80;0.60;;;18.30;60.80;;;;;;6222029;28;20080;-74
2022/09/29 08:35:25;;;;;;;7.07;1.50;;;18.40;61.00;;;;;;6221967;28;20054;-73
2022/09/29 08:38:27;;;;;;;0.77;0.60;;;18.40;61.10;;;;;;6227286;28;20336;-73
2022/09/29 08:41:57;;;;;;;3.35;0.63;;;18.40;61.10;;;;;;6246051;28;20099;-73
2022/09/29 08:45:04;;;;;;;12.80;1.00;;;18.50;61.00;;;;;;6135436;28;20064;-74
2022/09/29 08:48:34;;;;;;;3.55;1.00;;;18.60;60.80;;;;;;6163252;28;20063;-73
2022/09/29 08:51:42;;;;;;;8.38;1.20;;;18.60;60.70;;;;;;6139642;28;20059;-75
2022/09/29 08:54:46;;;;;;;6.93;1.17;;;18.70;60.50;;;;;;6144757;28;20036;-74
2022/09/29 08:57:54;;;;;;;7.18;1.25;;;18.80;60.30;;;;;;6145959;28;20047;-74
2022/09/29 09:01:47;;;;;;;4.03;1.87;;;18.90;60.20;;;;;;6145762;28;20063;-74
2022/09/29 09:05:16;;;;;;;2.47;1.35;;;19.00;60.10;;;;;;6127762;28;20031;-73
2022/09/29 09:08:38;;;;;;;4.82;2.13;;;19.10;59.90;;;;;;6141339;28;20077;-73
2022/09/29 09:11:55;;;;;;;8.43;2.80;;;19.10;59.60;;;;;;6127715;28;20091;-74
2022/09/29 09:15:14;;;;;;;2.80;1.20;;;19.20;59.60;;;;;;6167341;28;20361;-74
2022/09/29 09:18:51;;;;;;;5.13;1.70;;;19.30;59.30;;;;;;6133184;28;20043;-73
2022/09/29 09:22:00;;;;;;;3.53;1.40;;;19.50;59.10;;;;;;6091484;28;20086;-74
2022/09/29 09:25:12;;;;;;;1.80;1.23;;;19.60;58.80;;;;;;6132901;28;20123;-74
2022/09/29 09:28:29;;;;;;;5.00;1.20;;;19.70;58.60;;;;;;6118530;28;20031;-73
2022/09/29 09:31:43;;;;;;;2.53;1.17;;;19.90;58.90;;;;;;6116320;28;20442;-74
2022/09/29 09:34:54;;;;;;;3.13;0.63;;;20.00;58.00;;;;;;6110772;28;20051;-74
2022/09/29 09:38:01;;;;;;;0.95;0.60;;;20.00;57.60;;;;;;6093906;28;20064;-74
2022/09/29 09:41:02;;;;;;;2.10;0.75;;;20.10;57.00;;;;;;6110904;29;20044;-74
2022/09/29 09:44:21;;;;;;;0.55;0.55;;;20.10;56.80;;;;;;6095089;29;20036;-74
2022/09/29 09:47:27;;;;;;;2.53;0.60;;;20.10;56.50;;;;;;6077477;29;20369;-74
2022/09/29 09:50:28;;;;;;;1.10;0.63;;;20.10;56.50;;;;;;6112613;28;20482;-74
2022/09/29 09:53:40;;;;;;;2.00;0.68;;;20.20;56.30;;;;;;6083792;28;20043;-74
2022/09/29 09:56:50;;;;;;;0.60;0.50;;;20.20;56.00;;;;;;6230850;28;20128;-75
2022/09/29 10:00:14;;;;;;;2.83;0.50;;;20.40;55.70;;;;;;6218375;28;20041;-74
2022/09/29 10:03:16;;;;;;;0.63;0.47;;;20.40;55.30;;;;;;6214109;28;20379;-74
2022/09/29 10:06:18;;;;;;;2.05;0.50;;;20.60;55.00;;;;;;6213061;28;20105;-76
2022/09/29 10:09:20;;;;;;;1.77;0.60;;;20.60;54.60;;;;;;6224629;28;20038;-74
2022/09/29 10:12:23;;;;;;;1.48;0.90;;;20.70;54.60;;;;;;6222299;28;20030;-75
2022/09/29 10:15:35;;;;;;;0.75;0.55;;;20.80;54.10;;;;;;6218679;28;20045;-74
2022/09/29 10:18:51;;;;;;;2.17;0.63;;;20.90;53.90;;;;;;6194199;28;20034;-74
2022/09/29 10:21:52;;;;;;;1.45;0.82;;;21.00;53.80;;;;;;6236766;28;20050;-75
2022/09/29 10:25:14;;;;;;;0.88;0.57;;;21.00;53.70;;;;;;6222239;28;20045;-74
2022/09/29 10:28:16;;;;;;;1.38;0.60;;;20.90;53.20;;;;;;6190612;28;20045;-74
2022/09/29 10:31:21;;;;;;;9.55;0.95;;;20.70;53.20;;;;;;6221320;28;20487;-75
2022/09/29 10:34:24;;;;;;;2.17;0.82;;;20.60;53.30;;;;;;6218814;28;20056;-75
2022/09/29 10:37:37;;;;;;;1.40;0.82;;;20.40;53.50;;;;;;6217275;28;20034;-75
2022/09/29 10:40:57;;;;;;;5.00;0.90;;;20.20;53.60;;;;;;6217025;28;20374;-74
2022/09/29 10:44:19;;;;;;;1.77;0.75;;;20.00;53.90;;;;;;6197612;28;20097;-75
2022/09/29 10:47:22;;;;;;;2.38;0.88;;;19.80;54.10;;;;;;6236798;28;20112;-75
2022/09/29 10:50:28;;;;;;;2.95;0.60;;;19.70;54.40;;;;;;6211185;28;20058;-75
2022/09/29 10:53:37;;;;;;;1.25;0.77;;;19.70;54.50;;;;;;6209958;28;20034;-75
2022/09/29 10:56:47;;;;;;;1.67;0.77;;;19.60;54.50;;;;;;6219269;28;20136;-73
2022/09/29 10:59:49;;;;;;;0.68;0.50;;;19.50;54.70;;;;;;6215514;28;20038;-75
2022/09/29 11:02:53;;;;;;;2.58;0.77;;;19.50;54.70;;;;;;6206046;28;20037;-74
2022/09/29 11:06:08;;;;;;;1.60;0.60;;;19.50;54.70;;;;;;6219990;28;20121;-73
2022/09/29 11:09:12;;;;;;;0.77;0.60;;;19.50;54.70;;;;;;6225906;28;20669;-73
2022/09/29 11:12:27;;;;;;;6.57;1.10;;;19.40;54.60;;;;;;6239114;28;20463;-74
2022/09/29 11:15:39;;;;;;;1.75;0.60;;;19.30;54.70;;;;;;6237753;28;20034;-74
2022/09/29 11:18:42;;;;;;;3.90;0.77;;;19.30;54.90;;;;;;6227309;28;20081;-75
2022/09/29 11:21:52;;;;;;;0.75;0.60;;;19.30;55.20;;;;;;6198264;28;20069;-74
2022/09/29 11:25:21;;;;;;;1.17;0.60;;;19.20;55.40;;;;;;6210658;28;20030;-75
2022/09/29 11:28:47;;;;;;;0.63;0.50;;;19.10;55.80;;;;;;6199942;28;20052;-75
2022/09/29 11:31:57;;;;;;;3.42;0.65;;;18.90;56.00;;;;;;6194137;28;20040;-74
2022/09/29 11:35:13;;;;;;;2.75;0.88;;;18.80;56.30;;;;;;6231432;28;20053;-75
2022/09/29 11:38:26;;;;;;;1.15;0.68;;;18.90;56.40;;;;;;6213139;28;20176;-75
2022/09/29 11:41:52;;;;;;;1.33;0.63;;;19.00;56.00;;;;;;6213341;28;20562;-75
2022/09/29 11:45:07;;;;;;;0.85;0.55;;;19.00;55.90;;;;;;6212975;28;20526;-75
2022/09/29 11:48:26;;;;;;;0.98;0.45;;;19.10;55.60;;;;;;6204556;28;20129;-75
2022/09/29 11:52:02;;;;;;;2.08;0.68;;;19.10;55.40;;;;;;6199212;28;20034;-74
2022/09/29 11:55:42;;;;;;;0.50;0.50;;;19.10;55.40;;;;;;6165371;28;20432;-75
2022/09/29 11:59:13;;;;;;;1.77;0.60;;;19.10;55.20;;;;;;6148374;28;20047;-75
2022/09/29 12:02:16;;;;;;;0.47;0.43;;;19.20;55.10;;;;;;6148059;28;20055;-74
2022/09/29 12:06:15;;;;;;;1.55;0.60;;;19.20;54.90;;;;;;6164427;28;20047;-74
2022/09/29 12:10:03;;;;;;;2.33;0.60;;;19.10;55.00;;;;;;6072652;29;20048;-74
2022/09/29 12:13:41;;;;;;;1.23;0.30;;;18.90;54.80;;;;;;6003131;29;20325;-75
2022/09/29 12:17:05;;;;;;;0.50;0.30;;;18.80;54.90;;;;;;5969712;29;20042;-73
2022/09/29 12:20:24;;;;;;;0.40;0.30;;;18.70;54.70;;;;;;5995134;29;20114;-73
2022/09/29 12:23:28;;;;;;;0.60;0.20;;;18.70;54.20;;;;;;6004377;29;20134;-73
2022/09/29 12:26:30;;;;;;;0.20;0.10;;;18.60;53.80;;;;;;6000005;29;20070;-74
2022/09/29 12:29:43;;;;;;;3.30;0.40;;;18.70;53.60;;;;;;5983938;29;20035;-74
2022/09/29 12:33:07;;;;;;;0.68;0.17;;;18.70;53.40;;;;;;6002266;29;20144;-75
2022/09/29 12:36:52;;;;;;;1.15;0.35;;;18.80;52.80;;;;;;5986984;29;20791;-73
2022/09/29 12:40:08;;;;;;;0.57;0.20;;;18.90;52.30;;;;;;6046254;29;20052;-73
2022/09/29 12:43:16;;;;;;;1.55;0.10;;;19.10;51.70;;;;;;6031000;29;20552;-73
2022/09/29 12:46:25;;;;;;;0.35;0.25;;;19.10;51.30;;;;;;6086432;29;20028;-75
2022/09/29 12:49:38;;;;;;;0.85;0.30;;;19.00;51.00;;;;;;6167151;28;20372;-74
2022/09/29 12:52:54;;;;;;;0.17;0.17;;;19.00;51.10;;;;;;6174440;28;20038;-74
2022/09/29 12:56:01;;;;;;;1.65;0.40;;;18.90;51.20;;;;;;6191973;28;20057;-74
2022/09/29 12:59:28;;;;;;;0.50;0.17;;;18.80;51.10;;;;;;6157860;28;20041;-74
2022/09/29 13:02:57;;;;;;;1.10;0.25;;;18.80;50.90;;;;;;6096908;29;20043;-75
2022/09/29 13:06:21;;;;;;;9.48;0.50;;;18.60;51.00;;;;;;6095141;29;20127;-74
2022/09/29 13:09:28;;;;;;;1.10;0.30;;;18.60;51.20;;;;;;6084020;29;20106;-73
2022/09/29 13:13:00;;;;;;;0.68;0.30;;;18.60;51.10;;;;;;6095955;29;20081;-74
2022/09/29 13:16:32;;;;;;;1.80;0.40;;;18.70;50.70;;;;;;6095340;28;20059;-74
2022/09/29 13:19:51;;;;;;;1.45;0.20;;;18.90;50.20;;;;;;6131542;28;20039;-74
2022/09/29 13:22:56;;;;;;;5.03;0.30;;;19.10;49.90;;;;;;6125010;28;20091;-75
2022/09/29 13:26:22;;;;;;;0.93;0.28;;;19.20;50.00;;;;;;6124167;28;20078;-74
2022/09/29 13:29:27;;;;;;;4.32;0.43;;;19.20;50.00;;;;;;6100936;29;20055;-74
2022/09/29 13:32:31;;;;;;;1.00;0.30;;;19.20;50.20;;;;;;6103489;29;20091;-74
2022/09/29 13:35:39;;;;;;;1.25;0.10;;;19.20;50.50;;;;;;6115526;28;20035;-74
2022/09/29 13:38:52;;;;;;;3.80;0.63;;;19.20;50.70;;;;;;6131344;28;20049;-74
2022/09/29 13:41:55;;;;;;;8.18;0.50;;;19.30;50.70;;;;;;6234732;28;20038;-74
2022/09/29 13:45:35;;;;;;;3.08;0.30;;;19.30;50.90;;;;;;6213425;28;20073;-74
2022/09/29 13:48:46;;;;;;;2.38;0.70;;;19.20;51.00;;;;;;6209755;28;20061;-74
2022/09/29 13:52:10;;;;;;;3.40;0.25;;;19.20;51.20;;;;;;6197106;28;20034;-73
2022/09/29 13:55:52;;;;;;;0.03;0.03;;;19.10;51.10;;;;;;6208068;28;20057;-74
2022/09/29 13:59:00;;;;;;;3.03;0.47;;;19.10;50.90;;;;;;6125190;28;20042;-74
2022/09/29 14:02:38;;;;;;;0.88;0.40;;;19.10;50.70;;;;;;6158160;28;20137;-74
2022/09/29 14:05:45;;;;;;;1.48;0.43;;;19.10;50.90;;;;;;6143683;28;20042;-76
2022/09/29 14:09:08;;;;;;;0.60;0.40;;;19.10;50.70;;;;;;6158765;28;20039;-76
2022/09/29 14:12:19;;;;;;;0.30;0.30;;;19.10;50.80;;;;;;6157308;28;20428;-75
2022/09/29 14:15:22;;;;;;;0.80;0.50;;;19.20;51.00;;;;;;6164706;28;20084;-76
2022/09/29 14:18:35;;;;;;;2.63;0.50;;;19.30;51.10;;;;;;6158220;28;20293;-74
2022/09/29 14:21:55;;;;;;;0.63;0.30;;;19.30;51.20;;;;;;6160415;28;20687;-75
2022/09/29 14:25:11;;;;;;;0.50;0.40;;;19.40;51.30;;;;;;6160871;28;20039;-76
2022/09/29 14:28:19;;;;;;;1.05;0.47;;;19.50;51.20;;;;;;6143153;28;20041;-75
2022/09/29 14:31:23;;;;;;;0.68;0.43;;;19.50;51.10;;;;;;6162057;28;20035;-76
2022/09/29 14:34:28;;;;;;;0.40;0.40;;;19.50;51.00;;;;;;6170081;28;20121;-76
2022/09/29 14:37:30;;;;;;;1.08;0.60;;;19.60;51.00;;;;;;6199472;28;20041;-76
2022/09/29 14:40:31;;;;;;;0.70;0.40;;;19.60;51.00;;;;;;6236112;28;20033;-73
2022/09/29 14:43:59;;;;;;;1.05;0.50;;;19.60;51.10;;;;;;6240113;28;20471;-75
2022/09/29 14:54:27;;;;;;;0.40;0.40;;;19.50;51.50;;;;;;6231692;28;20118;-75
2022/09/29 14:57:45;;;;;;;;;;;19.50;51.60;;;;;;6233064;28;20046;-75
2022/09/29 15:00:53;;;;;;;2.00;0.70;;;19.60;51.60;;;;;;6200342;28;19960;-74
2022/09/29 15:03:57;;;;;;;1.90;0.80;;;19.70;51.40;;;;;;6217145;28;20030;-75
2022/09/29 15:07:03;;;;;;;5.15;0.60;;;19.80;51.50;;;;;;6216796;28;20037;-75
2022/09/29 15:10:25;;;;;;;3.55;1.50;;;19.90;51.50;;;;;;6202010;28;20038;-77
2022/09/29 15:13:30;;;;;;;1.67;0.93;;;19.90;51.60;;;;;;6220963;28;20073;-76
2022/09/29 15:16:57;;;;;;;0.80;0.60;;;20.20;51.60;;;;;;6220476;28;20109;-76
2022/09/29 15:20:08;;;;;;;5.50;1.27;;;20.30;51.40;;;;;;6196653;28;20367;-75
2022/09/29 15:23:52;;;;;;;1.42;0.70;;;20.30;51.20;;;;;;6222605;28;20378;-76
2022/09/29 15:26:53;;;;;;;3.17;0.60;;;20.40;51.20;;;;;;6162004;28;20447;-77
2022/09/29 15:29:56;;;;;;;6.15;2.47;;;20.50;51.00;;;;;;6160024;28;20030;-76
2022/09/29 15:33:20;;;;;;;3.08;1.45;;;20.60;51.00;;;;;;6171029;28;20042;-75
2022/09/29 15:36:32;;;;;;;1.95;1.30;;;20.70;50.70;;;;;;6182465;28;20099;-76
2022/09/29 15:39:37;;;;;;;7.05;1.63;;;20.70;50.40;;;;;;6188915;28;20511;-75
2022/09/29 15:42:40;;;;;;;3.15;1.10;;;20.60;50.40;;;;;;6171737;28;20047;-76
2022/09/29 15:46:01;;;;;;;5.32;1.30;;;20.50;50.70;;;;;;6193679;28;20054;-77
2022/09/29 15:49:14;;;;;;;10.45;5.22;;;20.30;50.80;;;;;;6175996;28;20439;-77
2022/09/29 15:52:22;;;;;;;17.98;7.40;;;20.20;51.10;;;;;;6178831;28;20034;-77
2022/09/29 15:55:24;;;;;;;9.38;3.72;;;20.10;51.30;;;;;;6169189;28;20121;-76
2022/09/29 15:58:25;;;;;;;4.25;2.20;;;20.00;51.60;;;;;;6200971;28;20466;-76
2022/09/29 16:01:26;;;;;;;3.92;1.98;;;20.00;51.70;;;;;;6195369;28;20039;-74
2022/09/29 16:04:27;;;;;;;3.15;1.80;;;19.90;51.80;;;;;;6202038;28;20057;-76
2022/09/29 16:07:33;;;;;;;2.50;1.75;;;19.80;52.00;;;;;;6215374;28;20100;-77
2022/09/29 16:10:49;;;;;;;1.20;0.90;;;19.70;52.20;;;;;;6197827;28;20522;-76
2022/09/29 16:13:56;;;;;;;7.40;2.85;;;19.70;52.40;;;;;;6208837;28;20054;-75
2022/09/29 16:16:57;;;;;;;2.77;1.43;;;19.50;52.60;;;;;;6197247;28;20049;-76
2022/09/29 16:19:59;;;;;;;15.15;6.80;;;19.40;52.80;;;;;;6223775;28;20383;-74
2022/09/29 16:23:21;;;;;;;15.63;5.28;;;19.30;53.00;;;;;;6219051;28;20053;-77
2022/09/29 16:26:39;;;;;;;2.47;1.50;;;19.10;53.30;;;;;;6215091;28;20038;-74
2022/09/29 16:29:40;;;;;;;4.03;1.00;;;18.90;53.50;;;;;;6214885;28;20463;-75
2022/09/29 16:32:41;;;;;;;1.35;0.90;;;18.90;53.70;;;;;;6219727;28;20045;-76
2022/09/29 16:35:52;;;;;;;3.92;1.65;;;18.70;53.90;;;;;;6197568;28;20367;-75